Time;durP1;ratioP1;P1;durP2;ratioP2;P2;SDS_P1;SDS_P2;PMS_P1;PMS_P2;Temp;Humidity;BMP_temperature;BMP_pressure;BME280_temperature;BME280_humidity;BME280_pressure;Samples;Min_cycle;Max_cycle;Signal;HPM_P1;HPM_P2
2023/11/27 00:01:12;;;;;;;10.50;4.82;;;;;;;4.70;100.00;100050.94;5063123;28;20052;-68
2023/11/27 00:03:41;;;;;;;9.15;4.68;;;;;;;4.68;100.00;100050.09;5069704;28;20048;-70
2023/11/27 00:06:10;;;;;;;15.43;5.22;;;;;;;4.65;100.00;100039.69;5071106;28;20052;-68
2023/11/27 00:08:38;;;;;;;14.20;4.97;;;;;;;4.65;100.00;100048.44;5067602;28;20044;-69
2023/11/27 00:11:07;;;;;;;11.57;4.63;;;;;;;4.65;100.00;100047.56;5063268;28;20040;-68
2023/11/27 00:13:36;;;;;;;13.55;4.80;;;;;;;4.68;100.00;100039.63;5071571;28;20079;-71
2023/11/27 00:16:06;;;;;;;9.63;4.93;;;;;;;4.65;100.00;100044.94;5052074;28;20197;-69
2023/11/27 00:18:35;;;;;;;15.48;5.20;;;;;;;4.62;100.00;100030.16;5069792;28;20370;-71
2023/11/27 00:21:03;;;;;;;11.55;5.35;;;;;;;4.58;100.00;100037.25;5061367;28;20044;-68
2023/11/27 00:23:32;;;;;;;16.40;5.10;;;;;;;4.58;100.00;100032.00;5064528;28;20139;-68
2023/11/27 00:26:01;;;;;;;13.73;5.15;;;;;;;4.55;100.00;100021.63;5073886;28;20040;-68
2023/11/27 00:28:30;;;;;;;13.30;5.40;;;;;;;4.59;100.00;100023.22;5059372;28;20500;-68
2023/11/27 00:31:00;;;;;;;13.32;5.15;;;;;;;4.59;100.00;100017.13;5070440;28;20040;-68
2023/11/27 00:33:29;;;;;;;11.00;4.75;;;;;;;4.56;100.00;100009.38;5069165;28;20052;-68
2023/11/27 00:35:57;;;;;;;17.10;5.38;;;;;;;4.55;100.00;100005.03;5069525;28;20048;-68
2023/11/27 00:38:26;;;;;;;12.77;5.05;;;;;;;4.50;100.00;100005.16;5068435;28;20044;-69
2023/11/27 00:40:55;;;;;;;13.45;4.75;;;;;;;4.42;100.00;99995.75;5060717;28;20652;-68
2023/11/27 00:43:29;;;;;;;14.30;5.88;;;;;;;4.42;100.00;99999.25;5067147;28;20036;-68
2023/11/27 00:46:00;;;;;;;16.35;5.10;;;;;;;4.43;100.00;99994.84;5067209;28;20075;-69
2023/11/27 00:48:27;;;;;;;13.02;4.72;;;;;;;4.43;100.00;99995.72;5068504;28;20040;-68
2023/11/27 00:50:56;;;;;;;11.02;4.50;;;;;;;4.41;100.00;99987.03;5060047;28;20059;-66
2023/11/27 00:53:25;;;;;;;10.05;4.70;;;;;;;4.40;100.00;99984.47;5072314;28;20062;-69
2023/11/27 00:55:53;;;;;;;12.43;4.75;;;;;;;4.41;100.00;99984.41;5074173;28;20478;-68
2023/11/27 00:58:21;;;;;;;12.95;5.15;;;;;;;4.38;100.00;99981.03;5056131;28;20047;-68
2023/11/27 01:00:50;;;;;;;14.50;4.80;;;;;;;4.25;100.00;99984.91;5057795;28;20048;-68
2023/11/27 01:03:22;;;;;;;15.35;4.70;;;;;;;4.16;100.00;99991.25;5070475;28;20079;-68
2023/11/27 01:05:50;;;;;;;9.80;4.95;;;;;;;4.10;100.00;99976.53;5069136;28;20142;-68
2023/11/27 01:08:19;;;;;;;12.73;5.03;;;;;;;4.21;100.00;99984.13;5067650;28;20045;-68
2023/11/27 01:10:47;;;;;;;13.02;4.47;;;;;;;4.26;100.00;99979.59;5056970;28;20367;-70
2023/11/27 01:13:15;;;;;;;8.68;4.65;;;;;;;4.31;100.00;99980.34;5052533;28;20045;-68
2023/11/27 01:15:43;;;;;;;11.60;4.93;;;;;;;4.31;100.00;99969.84;5071702;28;20041;-69
2023/11/27 01:18:11;;;;;;;15.13;4.55;;;;;;;4.40;100.00;99974.88;5079318;28;20093;-68
2023/11/27 01:20:42;;;;;;;15.88;5.32;;;;;;;4.42;100.00;99975.66;5060832;28;20048;-68
2023/11/27 01:23:10;;;;;;;10.10;4.50;;;;;;;4.29;100.00;99961.19;5069638;28;20037;-69
2023/11/27 01:25:39;;;;;;;10.25;4.25;;;;;;;4.29;100.00;99968.19;5036493;28;20053;-70
2023/11/27 01:28:08;;;;;;;15.45;4.82;;;;;;;4.27;100.00;99959.50;5069155;28;20141;-67
2023/11/27 01:30:43;;;;;;;12.20;4.38;;;;;;;4.32;100.00;99960.22;5062507;28;20036;-68
2023/11/27 01:33:15;;;;;;;11.55;4.55;;;;;;;4.33;100.00;99959.34;5070236;28;20067;-67
2023/11/27 01:35:45;;;;;;;13.10;4.80;;;;;;;4.36;100.00;99944.38;5070826;28;20052;-70
2023/11/27 01:38:15;;;;;;;10.75;4.35;;;;;;;4.35;100.00;99955.78;5074454;28;20052;-69
2023/11/27 01:40:43;;;;;;;11.00;4.15;;;;;;;4.28;100.00;99919.28;5064248;28;20041;-69
2023/11/27 01:43:15;;;;;;;13.73;4.97;;;;;;;4.35;100.00;99947.91;5075153;28;20792;-70
2023/11/27 01:45:43;;;;;;;8.80;3.72;;;;;;;4.17;100.00;99936.19;5075225;28;20075;-69
2023/11/27 01:48:11;;;;;;;7.93;4.03;;;;;;;4.07;100.00;99928.63;5076983;28;20049;-68
2023/11/27 01:50:40;;;;;;;8.57;4.20;;;;;;;4.16;100.00;99939.69;5048209;28;20036;-67
2023/11/27 01:53:10;;;;;;;12.77;4.07;;;;;;;4.19;100.00;99928.28;5075752;28;20055;-68
2023/11/27 01:55:39;;;;;;;10.82;4.05;;;;;;;4.25;100.00;99922.84;5056849;28;20483;-70
2023/11/27 01:58:06;;;;;;;12.93;4.38;;;;;;;4.22;100.00;99915.97;5069067;28;20048;-67
2023/11/27 02:00:36;;;;;;;8.27;3.67;;;;;;;4.27;100.00;99921.03;5047254;28;20051;-69
2023/11/27 02:03:05;;;;;;;11.00;4.05;;;;;;;4.28;100.00;99912.28;5071585;28;20041;-68
2023/11/27 02:05:34;;;;;;;10.43;3.63;;;;;;;4.22;100.00;99907.22;5072133;28;20048;-68
2023/11/27 02:08:08;;;;;;;10.38;3.60;;;;;;;4.22;100.00;99902.84;5054474;28;20052;-68
2023/11/27 02:10:38;;;;;;;11.48;3.83;;;;;;;4.27;100.00;99907.06;5063563;28;20192;-68
2023/11/27 02:13:08;;;;;;;;;;;;;;;4.28;100.00;99900.94;5072039;28;20098;-70
2023/11/27 02:15:36;;;;;;;9.80;3.67;;;;;;;4.30;100.00;99899.13;5071978;28;19966;-68
2023/11/27 02:18:05;;;;;;;10.90;3.33;;;;;;;4.33;100.00;99896.44;5073064;28;20133;-68
2023/11/27 02:20:34;;;;;;;7.20;3.25;;;;;;;4.28;100.00;99890.44;5065328;28;20059;-68
2023/11/27 02:23:02;;;;;;;8.95;3.50;;;;;;;4.18;100.00;99879.38;5070583;28;20060;-69
2023/11/27 02:25:32;;;;;;;11.52;3.83;;;;;;;4.22;100.00;99888.88;5071889;28;20083;-68
2023/11/27 02:28:00;;;;;;;7.57;3.50;;;;;;;4.22;100.00;99887.13;5071517;28;20049;-68
2023/11/27 02:30:29;;;;;;;8.63;3.67;;;;;;;4.18;100.00;99877.63;5102178;27;20080;-69
2023/11/27 02:32:57;;;;;;;9.65;3.33;;;;;;;4.14;100.00;99880.38;5083858;28;20159;-69
2023/11/27 02:35:27;;;;;;;10.43;3.55;;;;;;;4.05;100.00;99864.94;5055984;28;20052;-69
2023/11/27 02:38:01;;;;;;;10.57;3.45;;;;;;;3.92;100.00;99863.56;5072970;28;20456;-68
2023/11/27 02:40:33;;;;;;;8.10;3.05;;;;;;;3.96;100.00;99868.66;5065865;28;20059;-68
2023/11/27 02:43:02;;;;;;;6.07;2.95;;;;;;;3.97;100.00;99867.75;5068442;28;20048;-68
2023/11/27 02:45:30;;;;;;;8.02;3.20;;;;;;;3.94;100.00;99874.84;5074609;28;20048;-68
2023/11/27 02:47:59;;;;;;;9.57;3.40;;;;;;;3.88;100.00;99857.56;5074373;28;20052;-67
2023/11/27 02:50:27;;;;;;;11.20;3.20;;;;;;;3.90;100.00;99860.13;5069682;28;20037;-67
2023/11/27 02:52:56;;;;;;;7.28;3.13;;;;;;;3.83;100.00;99862.06;5078093;28;20044;-68
2023/11/27 02:55:24;;;;;;;8.85;3.55;;;;;;;3.79;100.00;99856.03;5088984;28;20051;-67
2023/11/27 02:57:59;;;;;;;8.07;3.58;;;;;;;3.76;100.00;99845.66;5076950;28;20048;-68
2023/11/27 03:00:27;;;;;;;9.40;3.65;;;;;;;3.65;100.00;99836.38;5082231;28;20064;-67
2023/11/27 03:02:56;;;;;;;8.40;3.40;;;;;;;3.79;100.00;99845.56;5086100;28;20276;-68
2023/11/27 03:05:25;;;;;;;7.38;3.47;;;;;;;3.81;100.00;99835.03;5038528;28;20045;-69
2023/11/27 03:07:53;;;;;;;11.18;3.75;;;;;;;3.83;100.00;99826.25;5074749;28;20058;-69
2023/11/27 03:10:21;;;;;;;7.72;3.60;;;;;;;3.92;100.00;99824.28;5065022;28;20427;-68
2023/11/27 03:12:52;;;;;;;9.75;3.05;;;;;;;3.95;100.00;99824.16;5082695;28;20123;-69
2023/11/27 03:15:23;;;;;;;13.48;3.50;;;;;;;3.94;100.00;99802.34;5060015;28;20056;-69
2023/11/27 03:17:54;;;;;;;10.05;3.70;;;;;;;3.97;100.00;99819.75;5078199;28;20041;-67
2023/11/27 03:20:22;;;;;;;10.57;3.10;;;;;;;3.93;100.00;99808.53;5071405;28;20052;-68
2023/11/27 03:22:50;;;;;;;7.85;3.30;;;;;;;3.82;100.00;99806.19;5099585;27;20518;-68
2023/11/27 03:25:19;;;;;;;7.80;3.25;;;;;;;3.83;100.00;99800.06;5072530;28;20080;-67
2023/11/27 03:27:47;;;;;;;6.55;3.00;;;;;;;3.85;100.00;99794.78;5072761;28;20082;-69
2023/11/27 03:30:16;;;;;;;11.00;3.53;;;;;;;3.92;100.00;99798.09;5074852;28;20333;-68
2023/11/27 03:32:45;;;;;;;10.05;3.22;;;;;;;3.87;100.00;99770.25;5078596;28;20048;-68
2023/11/27 03:35:13;;;;;;;10.63;3.25;;;;;;;3.93;100.00;99784.09;5074117;28;20110;-69
2023/11/27 03:37:41;;;;;;;7.53;2.97;;;;;;;3.91;100.00;99771.03;5072283;28;20048;-67
2023/11/27 03:40:10;;;;;;;9.75;3.72;;;;;;;3.94;100.00;99762.19;5082297;28;20044;-67
2023/11/27 03:42:38;;;;;;;9.63;3.25;;;;;;;3.53;100.00;99693.59;5045982;28;20229;-66
2023/11/27 03:45:08;;;;;;;6.65;3.10;;;;;;;3.98;100.00;99763.84;5073316;28;20105;-67
2023/11/27 03:47:38;;;;;;;11.50;3.53;;;;;;;4.05;100.00;99758.38;5073098;28;20562;-69
2023/11/27 03:50:10;;;;;;;10.07;3.30;;;;;;;3.97;100.00;99747.25;5050948;28;20037;-68
2023/11/27 03:52:38;;;;;;;6.18;2.78;;;;;;;4.01;100.00;99753.28;5059650;28;20243;-67
2023/11/27 03:55:07;;;;;;;9.70;2.85;;;;;;;4.01;100.00;99743.66;5071856;28;20051;-68
2023/11/27 03:57:37;;;;;;;8.25;3.22;;;;;;;4.06;100.00;99747.00;5069605;28;20132;-69
2023/11/27 04:00:09;;;;;;;7.70;3.42;;;;;;;4.00;100.00;99749.78;5063736;28;20045;-68
2023/11/27 04:02:40;;;;;;;10.73;3.40;;;;;;;3.96;100.00;99745.53;5077377;28;20483;-68
2023/11/27 04:05:11;;;;;;;9.57;3.22;;;;;;;3.96;100.00;99752.53;5066329;28;20477;-68
2023/11/27 04:07:40;;;;;;;8.80;3.58;;;;;;;3.97;100.00;99739.41;5068766;28;20143;-68
2023/11/27 04:10:09;;;;;;;8.80;3.55;;;;;;;4.04;100.00;99745.31;5069608;28;20512;-69
2023/11/27 04:12:36;;;;;;;6.93;3.10;;;;;;;4.05;100.00;99739.19;5064856;28;20041;-69
2023/11/27 04:15:07;;;;;;;10.50;3.85;;;;;;;4.04;100.00;99727.84;5070127;28;20044;-68
2023/11/27 04:17:35;;;;;;;9.32;3.20;;;;;;;4.06;100.00;99733.91;5069101;28;20056;-68
2023/11/27 04:20:07;;;;;;;10.52;3.72;;;;;;;4.07;100.00;99733.00;5067468;28;20053;-68
2023/11/27 04:22:36;;;;;;;10.50;3.67;;;;;;;4.01;100.00;99727.06;5061703;28;20583;-68
2023/11/27 04:25:07;;;;;;;7.65;3.83;;;;;;;4.07;100.00;99724.28;5068709;28;20096;-69
2023/11/27 04:27:35;;;;;;;12.57;4.20;;;;;;;4.11;100.00;99718.00;5069742;28;20052;-70
2023/11/27 04:30:05;;;;;;;7.65;3.60;;;;;;;4.12;100.00;99711.88;5069271;28;20040;-69
2023/11/27 04:32:35;;;;;;;10.25;3.75;;;;;;;4.16;100.00;99718.72;5063729;28;20047;-69
2023/11/27 04:35:04;;;;;;;14.40;4.38;;;;;;;4.11;100.00;99715.38;5074374;28;20082;-69
2023/11/27 04:37:32;;;;;;;11.00;4.30;;;;;;;4.09;100.00;99714.59;5076724;28;20064;-69
2023/11/27 04:40:02;;;;;;;10.02;4.90;;;;;;;4.02;100.00;99711.31;5074744;28;20037;-68
2023/11/27 04:42:32;;;;;;;9.13;4.55;;;;;;;3.99;100.00;99706.16;5070083;28;20121;-67
2023/11/27 04:45:00;;;;;;;9.95;4.40;;;;;;;4.00;100.00;99696.53;5092584;28;20094;-68
2023/11/27 04:47:29;;;;;;;8.25;4.00;;;;;;;4.01;100.00;99693.88;5076340;28;20052;-67
2023/11/27 04:49:57;;;;;;;12.57;4.47;;;;;;;4.05;100.00;99702.50;5073633;28;20405;-69
2023/11/27 04:52:28;;;;;;;9.32;4.70;;;;;;;4.02;100.00;99698.22;5070464;28;20040;-68
2023/11/27 04:54:57;;;;;;;9.13;4.78;;;;;;;4.05;100.00;99699.88;5076235;28;20048;-69
2023/11/27 04:57:27;;;;;;;10.50;4.63;;;;;;;4.07;100.00;99687.59;5073781;28;20071;-69
2023/11/27 04:59:55;;;;;;;11.32;4.35;;;;;;;4.13;100.00;99688.22;5070405;28;20059;-68
2023/11/27 05:02:23;;;;;;;11.48;4.45;;;;;;;4.08;100.00;99684.94;5059806;28;20535;-68
2023/11/27 05:04:51;;;;;;;13.35;4.82;;;;;;;4.01;100.00;99672.06;5069828;28;20045;-68
2023/11/27 05:07:19;;;;;;;13.43;4.95;;;;;;;4.02;100.00;99681.63;5065513;28;20112;-68
2023/11/27 05:09:49;;;;;;;13.57;5.22;;;;;;;3.88;100.00;99667.22;5068087;28;20123;-68
2023/11/27 05:12:18;;;;;;;;;;;;;;;3.94;100.00;99681.00;5076803;28;20033;-68
2023/11/27 05:15:00;;;;;;;;;;;;;;;3.91;100.00;99670.66;5078992;28;19924;-69
2023/11/27 05:17:28;;;;;;;10.88;4.93;;;;;;;3.83;100.00;99665.63;5072965;28;19947;-69
2023/11/27 05:19:56;;;;;;;10.73;4.82;;;;;;;3.81;100.00;99664.81;5075681;28;20067;-68
2023/11/27 05:22:25;;;;;;;9.45;4.80;;;;;;;3.80;100.00;99666.56;5068166;28;20523;-68
2023/11/27 05:24:55;;;;;;;8.20;5.00;;;;;;;3.76;100.00;99654.50;5075062;28;20064;-67
2023/11/27 05:27:24;;;;;;;13.35;5.25;;;;;;;3.63;100.00;99640.06;5076598;28;20408;-68
2023/11/27 05:29:53;;;;;;;10.55;4.82;;;;;;;3.80;100.00;99650.88;5075966;28;20098;-68
2023/11/27 05:32:22;;;;;;;8.95;5.60;;;;;;;3.81;100.00;99649.09;5050847;28;20124;-68
2023/11/27 05:34:50;;;;;;;10.00;5.30;;;;;;;3.82;100.00;99649.06;5075871;28;20059;-70
2023/11/27 05:37:18;;;;;;;15.80;4.82;;;;;;;3.83;100.00;99640.31;5072611;28;20048;-68
2023/11/27 05:39:46;;;;;;;9.93;5.30;;;;;;;3.81;100.00;99633.41;5053964;28;20570;-69
2023/11/27 05:42:20;;;;;;;15.60;5.60;;;;;;;3.68;100.00;99627.69;5067498;28;20055;-68
2023/11/27 05:44:49;;;;;;;16.90;5.38;;;;;;;3.65;100.00;99626.91;5073414;28;20041;-69
2023/11/27 05:47:18;;;;;;;12.15;5.20;;;;;;;3.67;100.00;99625.97;5073844;28;20489;-68
2023/11/27 05:49:48;;;;;;;12.03;5.57;;;;;;;3.71;100.00;99617.13;5108871;27;20505;-68
2023/11/27 05:52:17;;;;;;;12.18;5.25;;;;;;;3.76;100.00;99617.00;5075168;28;20052;-67
2023/11/27 05:54:45;;;;;;;12.50;5.18;;;;;;;3.73;100.00;99615.31;5081812;28;20048;-68
2023/11/27 05:57:15;;;;;;;10.30;5.38;;;;;;;3.72;100.00;99612.75;5078200;28;20052;-67
2023/11/27 05:59:47;;;;;;;8.93;4.90;;;;;;;3.70;100.00;99618.03;5073047;28;20045;-69
2023/11/27 06:02:15;;;;;;;10.32;5.07;;;;;;;3.76;100.00;99610.00;5065077;28;20508;-69
2023/11/27 06:04:45;;;;;;;12.02;5.18;;;;;;;3.72;100.00;99607.50;5073450;28;20079;-69
2023/11/27 06:07:19;;;;;;;15.70;5.87;;;;;;;3.76;100.00;99609.13;5076165;28;20591;-68
2023/11/27 06:09:50;;;;;;;10.32;5.80;;;;;;;3.76;100.00;99602.13;5079122;28;20459;-67
2023/11/27 06:12:19;;;;;;;10.93;5.25;;;;;;;3.66;100.00;99599.84;5067315;28;20052;-68
2023/11/27 06:14:47;;;;;;;10.10;5.05;;;;;;;3.58;100.00;99594.84;5081593;28;20059;-67
2023/11/27 06:17:20;;;;;;;10.93;5.75;;;;;;;3.60;100.00;99598.28;5070956;28;20052;-69
2023/11/27 06:19:49;;;;;;;13.65;5.65;;;;;;;3.64;100.00;99591.16;5071206;28;20530;-68
2023/11/27 06:22:18;;;;;;;14.32;5.53;;;;;;;3.65;100.00;99578.03;5066207;28;20048;-68
2023/11/27 06:24:49;;;;;;;12.38;5.60;;;;;;;3.72;100.00;99582.19;5071644;28;20521;-68
2023/11/27 06:27:22;;;;;;;10.77;5.40;;;;;;;3.73;100.00;99583.91;5067969;28;20252;-68
2023/11/27 06:29:50;;;;;;;14.52;5.40;;;;;;;3.83;100.00;99574.81;5071685;28;20078;-68
2023/11/27 06:32:20;;;;;;;14.23;6.25;;;;;;;3.76;100.00;99570.72;5066301;28;20090;-69
2023/11/27 06:34:51;;;;;;;17.77;5.43;;;;;;;3.68;100.00;99570.09;5073032;28;20045;-69
2023/11/27 06:37:20;;;;;;;9.80;5.57;;;;;;;3.71;100.00;99563.91;5068622;28;20483;-68
2023/11/27 06:39:50;;;;;;;13.00;5.63;;;;;;;3.72;100.00;99563.84;5073357;28;20496;-68
2023/11/27 06:42:18;;;;;;;14.25;5.80;;;;;;;3.76;100.00;99557.63;5048715;28;20045;-69
2023/11/27 06:44:46;;;;;;;11.85;5.70;;;;;;;3.76;100.00;99557.63;5064186;28;20405;-68
2023/11/27 06:47:15;;;;;;;10.88;6.28;;;;;;;3.86;100.00;99559.03;5072524;28;20040;-70
2023/11/27 06:49:45;;;;;;;14.65;6.13;;;;;;;3.86;100.00;99555.53;5069251;28;20500;-68
2023/11/27 06:52:14;;;;;;;13.02;5.82;;;;;;;3.83;100.00;99548.63;5069363;28;20040;-69
2023/11/27 06:54:44;;;;;;;13.65;5.72;;;;;;;3.79;100.00;99541.78;5053072;28;20362;-69
2023/11/27 06:57:15;;;;;;;15.52;6.22;;;;;;;3.86;100.00;99543.31;5070258;28;20048;-67
2023/11/27 06:59:43;;;;;;;;;;;;;;;3.87;100.00;99544.16;5074089;28;20040;-68
2023/11/27 07:02:13;;;;;;;16.10;5.97;;;;;;;3.94;100.00;99534.31;5063735;28;20651;-69
2023/11/27 07:04:42;;;;;;;19.20;9.45;;;;;;;3.87;100.00;99526.69;5067890;28;20491;-69
2023/11/27 07:07:10;;;;;;;14.57;6.80;;;;;;;3.93;100.00;99532.63;5072046;28;20044;-68
2023/11/27 07:09:39;;;;;;;12.63;6.78;;;;;;;3.93;100.00;99528.25;5069106;28;20056;-70
2023/11/27 07:12:16;;;;;;;15.35;6.97;;;;;;;3.93;100.00;99524.78;5065937;28;20040;-68
2023/11/27 07:14:44;;;;;;;13.68;6.15;;;;;;;3.92;100.00;99525.69;5067477;28;20531;-69
2023/11/27 07:17:12;;;;;;;13.20;5.82;;;;;;;4.01;100.00;99525.34;5071524;28;20048;-69
2023/11/27 07:19:40;;;;;;;13.88;6.30;;;;;;;3.96;100.00;99514.16;5068166;28;20124;-68
2023/11/27 07:22:09;;;;;;;10.23;5.90;;;;;;;4.01;100.00;99515.75;5065549;28;20805;-67
2023/11/27 07:24:36;;;;;;;15.63;6.53;;;;;;;3.98;100.00;99514.97;5066532;28;20037;-69
2023/11/27 07:27:05;;;;;;;12.70;6.13;;;;;;;4.04;100.00;99513.03;5070716;28;20056;-68
2023/11/27 07:29:38;;;;;;;13.53;6.30;;;;;;;4.02;100.00;99506.13;5068318;28;20054;-68
2023/11/27 07:32:06;;;;;;;13.38;5.72;;;;;;;3.94;100.00;99497.66;5065991;28;20566;-68
2023/11/27 07:34:34;;;;;;;15.38;5.97;;;;;;;3.92;100.00;99494.25;5065124;28;20052;-69
2023/11/27 07:37:02;;;;;;;13.95;6.00;;;;;;;3.94;100.00;99495.03;5066235;28;20036;-68
2023/11/27 07:39:31;;;;;;;12.13;5.85;;;;;;;3.96;100.00;99490.59;5080652;28;20075;-68
2023/11/27 07:41:59;;;;;;;12.27;6.20;;;;;;;4.05;100.00;99491.16;5051112;28;20385;-68
2023/11/27 07:44:27;;;;;;;12.50;6.38;;;;;;;4.04;100.00;99488.59;5074636;28;20048;-68
2023/11/27 07:47:01;;;;;;;14.55;6.45;;;;;;;4.01;100.00;99492.16;5070867;28;20068;-68
2023/11/27 07:49:29;;;;;;;13.40;6.88;;;;;;;4.00;100.00;99498.31;5069460;28;20349;-68
2023/11/27 07:51:59;;;;;;;16.25;6.85;;;;;;;3.95;100.00;99484.50;5066812;28;20059;-68
2023/11/27 07:54:35;;;;;;;14.50;6.75;;;;;;;3.79;100.00;99475.47;5060141;28;20159;-69
2023/11/27 07:57:32;;;;;;;14.18;7.00;;;;;;;3.76;100.00;99484.31;5074276;28;21014;-69
2023/11/27 08:00:01;;;;;;;13.30;7.30;;;;;;;3.78;100.00;99477.22;5077285;28;20310;-68
2023/11/27 08:02:42;;;;;;;18.25;7.13;;;;;;;3.84;100.00;99471.78;5073070;28;20067;-69
2023/11/27 08:05:15;;;;;;;12.60;6.68;;;;;;;3.88;100.00;99472.53;5075744;28;20114;-70
2023/11/27 08:07:45;;;;;;;;;;;;;;;3.94;100.00;99474.06;5067027;28;20121;-69
2023/11/27 08:10:16;;;;;;;13.83;7.30;;;;;;;3.87;100.00;99461.22;5078098;28;20300;-68
2023/11/27 08:12:47;;;;;;;14.15;6.57;;;;;;;3.92;100.00;99455.81;5069915;28;20033;-69
2023/11/27 08:15:18;;;;;;;12.45;6.85;;;;;;;3.94;100.00;99466.22;5071413;28;20098;-68
2023/11/27 08:17:49;;;;;;;;;;;;;;;3.95;100.00;99458.31;5072185;28;20049;-69
2023/11/27 08:20:27;;;;;;;13.48;7.10;;;;;;;3.90;100.00;99455.03;5071044;28;19920;-68
2023/11/27 08:22:58;;;;;;;13.35;7.38;;;;;;;3.97;100.00;99450.41;5049066;28;20255;-67
2023/11/27 08:25:29;;;;;;;16.02;7.43;;;;;;;3.99;100.00;99440.72;5071334;28;20052;-69
2023/11/27 08:27:58;;;;;;;13.00;6.82;;;;;;;4.10;100.00;99446.44;5052780;28;20260;-68
2023/11/27 08:30:29;;;;;;;12.18;6.82;;;;;;;4.07;100.00;99442.19;5085231;28;20048;-68
2023/11/27 08:32:59;;;;;;;14.00;6.70;;;;;;;4.07;100.00;99436.09;5049173;28;20532;-69
2023/11/27 08:35:34;;;;;;;12.93;6.00;;;;;;;4.10;100.00;99431.56;5083933;28;20139;-70
2023/11/27 08:38:08;;;;;;;12.02;5.85;;;;;;;4.10;100.00;99430.72;5070863;28;20045;-70
2023/11/27 08:40:37;;;;;;;10.52;5.40;;;;;;;4.04;100.00;99413.47;5070762;28;20041;-68
2023/11/27 08:43:05;;;;;;;12.95;6.00;;;;;;;4.02;100.00;99411.81;5064283;28;20041;-67
2023/11/27 08:45:35;;;;;;;13.35;5.53;;;;;;;3.94;100.00;99409.44;5067086;28;20041;-69
2023/11/27 08:48:06;;;;;;;13.33;6.40;;;;;;;3.93;100.00;99407.78;5067857;28;20048;-67
2023/11/27 08:50:36;;;;;;;13.27;6.28;;;;;;;3.87;100.00;99402.75;5067969;28;20048;-69
2023/11/27 08:53:07;;;;;;;13.50;6.25;;;;;;;3.88;100.00;99410.53;5062775;28;20052;-68
2023/11/27 08:55:36;;;;;;;13.73;6.32;;;;;;;3.85;100.00;99405.41;5057790;28;20484;-68
2023/11/27 08:58:06;;;;;;;14.77;6.00;;;;;;;3.80;100.00;99399.47;5073092;28;20037;-69
2023/11/27 09:00:40;;;;;;;12.57;6.18;;;;;;;3.87;100.00;99402.75;5071257;28;20095;-67
2023/11/27 09:03:12;;;;;;;17.15;7.38;;;;;;;3.78;100.00;99397.81;5069281;28;20040;-68
2023/11/27 09:05:42;;;;;;;12.45;7.35;;;;;;;3.73;100.00;99392.75;5102253;28;20106;-69
2023/11/27 09:08:09;;;;;;;17.15;7.78;;;;;;;3.66;100.00;99379.91;5074563;28;20098;-68
2023/11/27 09:10:38;;;;;;;15.60;7.53;;;;;;;3.75;100.00;99390.09;5074427;28;20048;-69
2023/11/27 09:13:09;;;;;;;13.57;7.93;;;;;;;3.72;100.00;99387.56;5052344;28;20045;-68
2023/11/27 09:15:41;;;;;;;15.88;7.30;;;;;;;3.64;100.00;99382.59;5069548;28;20044;-69
2023/11/27 09:18:13;;;;;;;19.25;7.95;;;;;;;3.59;100.00;99375.81;5077631;28;20068;-68
2023/11/27 09:20:41;;;;;;;15.75;7.68;;;;;;;3.58;100.00;99376.72;5077734;28;20320;-67
2023/11/27 09:23:10;;;;;;;15.02;7.13;;;;;;;3.59;100.00;99363.59;5068539;28;20041;-68
2023/11/27 09:25:39;;;;;;;13.88;7.20;;;;;;;3.63;100.00;99367.78;5068497;28;20136;-68
2023/11/27 09:28:11;;;;;;;12.10;6.97;;;;;;;3.52;100.00;99357.69;5069014;28;20052;-68
2023/11/27 09:30:42;;;;;;;13.80;7.18;;;;;;;3.43;100.00;99354.56;5034547;28;20147;-68
2023/11/27 09:33:14;;;;;;;16.80;8.52;;;;;;;3.26;100.00;99335.97;5064607;28;20044;-69
2023/11/27 09:35:42;;;;;;;13.95;6.65;;;;;;;3.26;100.00;99349.03;5066050;28;20045;-69
2023/11/27 09:38:11;;;;;;;15.55;7.00;;;;;;;3.25;100.00;99337.72;5071708;28;20400;-68
2023/11/27 09:40:44;;;;;;;16.65;7.10;;;;;;;3.30;100.00;99338.44;5070667;28;20044;-69
2023/11/27 09:43:17;;;;;;;14.05;7.53;;;;;;;3.35;100.00;99333.88;5065375;28;20075;-69
2023/11/27 09:45:45;;;;;;;17.98;7.95;;;;;;;3.29;100.00;99336.72;5062058;28;20091;-68
2023/11/27 09:48:18;;;;;;;13.60;7.55;;;;;;;3.24;100.00;99328.16;5067004;28;20043;-68
2023/11/27 09:50:53;;;;;;;19.80;7.72;;;;;;;3.29;100.00;99314.94;5065902;28;20052;-68
2023/11/27 09:53:35;;;;;;;18.60;7.45;;;;;;;3.25;100.00;99308.94;5061289;28;20056;-67
2023/11/27 09:56:06;;;;;;;19.05;8.05;;;;;;;3.29;100.00;99301.84;5066887;28;20044;-69
2023/11/27 09:58:36;;;;;;;;;;;;;;;3.30;100.00;99304.41;5069855;28;20049;-68
2023/11/27 10:01:06;;;;;;;13.18;7.45;;;;;;;3.18;100.00;99281.28;5066631;28;20278;-71
2023/11/27 10:03:37;;;;;;;13.98;8.27;;;;;;;3.27;100.00;99290.59;5068052;28;20623;-70
2023/11/27 10:06:07;;;;;;;13.85;7.85;;;;;;;3.21;100.00;99278.56;5070791;28;20043;-68
2023/11/27 10:08:35;;;;;;;13.07;7.40;;;;;;;3.22;100.00;99282.03;5072039;28;20536;-71
2023/11/27 10:11:04;;;;;;;16.95;8.43;;;;;;;3.15;100.00;99271.78;5057158;28;20087;-69
2023/11/27 10:13:34;;;;;;;13.45;7.95;;;;;;;3.12;100.00;99271.03;5067219;28;20071;-68
2023/11/27 10:16:23;;;;;;;13.65;8.02;;;;;;;3.11;100.00;99264.97;5076393;28;20481;-69
2023/11/27 10:18:55;;;;;;;16.20;7.88;;;;;;;2.99;100.00;99233.97;5077548;28;20044;-69
2023/11/27 10:21:23;;;;;;;14.60;7.90;;;;;;;3.08;100.00;99238.06;5072130;28;20078;-69
2023/11/27 10:23:54;;;;;;;13.40;8.18;;;;;;;2.93;100.00;99209.81;5066067;28;20483;-68
2023/11/27 10:26:23;;;;;;;12.18;7.60;;;;;;;2.97;100.00;99219.28;5072164;28;20032;-70
2023/11/27 10:28:53;;;;;;;13.13;7.75;;;;;;;3.07;100.00;99215.41;5073486;28;20667;-69
2023/11/27 10:31:21;;;;;;;13.70;7.40;;;;;;;3.03;100.00;99195.50;5072746;28;20064;-70
2023/11/27 10:33:56;;;;;;;12.65;7.53;;;;;;;3.00;100.00;99193.84;5066942;28;20591;-69
2023/11/27 10:36:30;;;;;;;13.68;7.03;;;;;;;3.05;100.00;99191.06;5064292;28;20468;-70
2023/11/27 10:39:05;;;;;;;10.82;6.82;;;;;;;3.05;100.00;99186.69;5075849;28;20055;-70
2023/11/27 10:41:33;;;;;;;11.05;6.35;;;;;;;2.99;100.00;99179.06;5067380;28;20468;-69
2023/11/27 10:44:02;;;;;;;11.13;6.15;;;;;;;2.94;100.00;99172.31;5066584;28;20090;-70
2023/11/27 10:46:31;;;;;;;11.38;6.35;;;;;;;2.89;100.00;99169.84;5068614;28;20048;-69
2023/11/27 10:49:03;;;;;;;11.88;6.70;;;;;;;2.94;100.00;99162.69;5073730;28;20374;-69
2023/11/27 10:51:33;;;;;;;13.35;6.88;;;;;;;2.98;100.00;99160.84;5082277;28;20072;-69
2023/11/27 10:54:01;;;;;;;13.10;6.72;;;;;;;2.95;100.00;99147.88;5081094;28;20051;-70
2023/11/27 10:56:31;;;;;;;13.40;7.75;;;;;;;2.89;100.00;99143.69;5079347;28;20953;-69
2023/11/27 10:59:05;;;;;;;12.05;7.03;;;;;;;2.92;100.00;99143.59;5080033;28;20048;-69
2023/11/27 11:01:39;;;;;;;14.63;7.07;;;;;;;2.88;100.00;99126.31;5081923;28;20052;-71
2023/11/27 11:04:20;;;;;;;14.57;7.32;;;;;;;2.85;100.00;99113.34;5074097;28;20066;-68
2023/11/27 11:06:54;;;;;;;12.27;7.47;;;;;;;2.83;100.00;99108.16;5084685;28;20049;-70
2023/11/27 11:09:30;;;;;;;14.00;7.35;;;;;;;2.77;100.00;99115.38;5069311;28;20106;-69
2023/11/27 11:12:00;;;;;;;12.43;6.20;;;;;;;2.73;100.00;99109.41;5069441;28;20072;-69
2023/11/27 11:14:29;;;;;;;11.68;6.68;;;;;;;2.51;100.00;99099.78;5096640;27;20045;-70
2023/11/27 11:17:07;;;;;;;11.30;6.82;;;;;;;2.33;100.00;99096.91;5101639;28;20040;-70
2023/11/27 11:19:45;;;;;;;12.48;7.00;;;;;;;2.39;100.00;99101.88;5084536;28;20060;-70
2023/11/27 11:22:31;;;;;;;12.32;6.82;;;;;;;2.48;100.00;99095.50;5085710;28;20389;-70
2023/11/27 11:25:09;;;;;;;12.90;7.15;;;;;;;2.53;100.00;99088.34;5061681;28;20075;-71
2023/11/27 11:27:50;;;;;;;11.85;6.75;;;;;;;2.45;100.00;99087.78;5071672;28;20036;-70
2023/11/27 11:30:20;;;;;;;14.88;7.13;;;;;;;2.38;100.00;99063.63;5072290;28;20071;-71
2023/11/27 11:32:49;;;;;;;12.85;7.07;;;;;;;2.54;100.00;99073.53;5053913;28;20048;-70
2023/11/27 11:35:19;;;;;;;11.25;6.90;;;;;;;2.56;100.00;99064.72;5061644;28;20040;-71
2023/11/27 11:37:50;;;;;;;10.80;6.90;;;;;;;2.59;100.00;99055.94;5084754;28;20460;-70
2023/11/27 11:40:19;;;;;;;12.93;7.28;;;;;;;2.27;100.00;98992.63;5069411;28;20094;-70
2023/11/27 11:42:58;;;;;;;9.73;6.65;;;;;;;2.56;100.00;99048.19;5070272;28;20554;-69